createdAt,value
2023-02-05T00:02:16.233Z,101139.79
2023-02-05T00:04:43.094Z,101141.50
2023-02-05T00:07:09.958Z,101146.27
2023-02-05T00:09:40.234Z,101144.71
2023-02-05T00:12:07.184Z,101144.17
2023-02-05T00:14:34.149Z,101145.67
2023-02-05T00:17:02.842Z,101145.00
2023-02-05T00:19:30.269Z,101147.59
2023-02-05T00:21:57.096Z,101146.08
2023-02-05T00:24:24.375Z,101143.71
2023-02-05T00:26:51.252Z,101143.56
2023-02-05T00:29:18.286Z,101146.61
2023-02-05T00:31:48.900Z,101145.42
2023-02-05T00:34:16.241Z,101146.45
2023-02-05T00:36:43.150Z,101146.44
2023-02-05T00:39:11.648Z,101144.58
2023-02-05T00:41:38.871Z,101143.01
2023-02-05T00:44:06.269Z,101145.23
2023-02-05T00:46:33.023Z,101144.59
2023-02-05T00:49:00.387Z,101145.63
2023-02-05T00:51:27.290Z,101150.94
2023-02-05T00:53:54.579Z,101147.91
2023-02-05T00:56:21.534Z,101147.98
2023-02-05T00:58:50.286Z,101146.30
2023-02-05T01:01:17.192Z,101145.96
2023-02-05T01:03:44.139Z,101148.35
2023-02-05T01:06:11.168Z,101148.19
2023-02-05T01:08:40.499Z,101147.20
2023-02-05T01:11:08.940Z,101147.76
2023-02-05T01:13:37.509Z,101150.56
2023-02-05T01:16:05.709Z,101148.55
2023-02-05T01:18:32.615Z,101146.20
2023-02-05T01:20:59.432Z,101145.20
2023-02-05T01:23:27.479Z,101146.41
2023-02-05T01:25:54.945Z,101147.25
2023-02-05T01:28:21.809Z,101144.83
2023-02-05T01:30:49.302Z,101147.52
2023-02-05T01:33:17.114Z,101153.17
2023-02-05T01:35:44.532Z,101153.56
2023-02-05T01:38:12.159Z,101154.97
2023-02-05T01:40:40.577Z,101152.60
2023-02-05T01:43:14.883Z,101152.14
2023-02-05T01:45:50.064Z,101157.30
2023-02-05T01:48:22.334Z,101159.87
2023-02-05T01:50:52.185Z,101160.25
2023-02-05T01:53:26.658Z,101157.70
2023-02-05T01:55:59.496Z,101157.90
2023-02-05T01:58:29.317Z,101158.58
2023-02-05T02:00:56.133Z,101160.29
2023-02-05T02:03:23.200Z,101159.30
2023-02-05T02:05:50.401Z,101157.77
2023-02-05T02:08:17.643Z,101157.95
2023-02-05T02:10:44.486Z,101160.50
2023-02-05T02:13:11.291Z,101160.98
2023-02-05T02:15:38.949Z,101160.82
2023-02-05T02:18:26.903Z,101161.69
2023-02-05T02:21:02.951Z,101162.23
2023-02-05T02:23:55.066Z,101157.09
2023-02-05T02:26:23.068Z,101155.77
2023-02-05T02:28:51.301Z,101152.38
2023-02-05T02:31:38.225Z,101154.31
2023-02-05T02:34:14.377Z,101153.34
2023-02-05T02:37:04.108Z,101151.17
2023-02-05T02:39:33.640Z,101154.98
2023-02-05T02:42:08.313Z,101155.33
2023-02-05T02:44:40.005Z,101157.86
2023-02-05T02:47:17.056Z,101161.27
2023-02-05T02:50:04.813Z,101162.14
2023-02-05T02:52:37.124Z,101159.63
2023-02-05T02:55:07.402Z,101156.61
2023-02-05T02:57:35.946Z,101159.69
2023-02-05T03:00:05.510Z,101159.70
2023-02-05T03:02:32.613Z,101163.98
2023-02-05T03:05:02.679Z,101165.17
2023-02-05T03:07:38.844Z,101166.39
2023-02-05T03:10:36.150Z,101168.83
2023-02-05T03:13:09.535Z,101172.75
2023-02-05T03:15:45.808Z,101175.10
2023-02-05T03:18:13.555Z,101177.33
2023-02-05T03:20:59.782Z,101174.61
2023-02-05T03:23:27.105Z,101173.61
2023-02-05T03:25:55.127Z,101176.02
2023-02-05T03:28:26.583Z,101178.80
2023-02-05T03:31:15.155Z,101175.88
2023-02-05T03:33:52.653Z,101176.04
2023-02-05T03:36:48.814Z,101174.13
2023-02-05T03:39:51.280Z,101172.75
2023-02-05T03:42:36.434Z,101169.96
2023-02-05T03:45:27.974Z,101168.76
2023-02-05T03:48:37.461Z,101173.87
2023-02-05T03:51:43.284Z,101176.74
2023-02-05T03:54:24.223Z,101169.57
2023-02-05T03:56:56.752Z,101172.61
2023-02-05T03:59:23.825Z,101179.73
2023-02-05T04:01:51.287Z,101175.45
2023-02-05T04:04:18.866Z,101177.66
2023-02-05T04:06:47.013Z,101174.77
2023-02-05T04:09:14.234Z,101169.52
2023-02-05T04:11:41.283Z,101171.42
2023-02-05T04:14:08.875Z,101176.74
2023-02-05T04:16:36.404Z,101174.55
2023-02-05T04:19:03.692Z,101173.35
2023-02-05T04:21:31.076Z,101178.77
2023-02-05T04:23:58.545Z,101177.88
2023-02-05T04:26:26.174Z,101178.00
2023-02-05T04:29:00.730Z,101177.50
2023-02-05T04:31:28.126Z,101180.90
2023-02-05T04:33:55.353Z,101186.90
2023-02-05T04:36:22.465Z,101185.73
2023-02-05T04:38:49.855Z,101188.54
2023-02-05T04:41:16.713Z,101187.92
2023-02-05T04:43:43.674Z,101188.70
2023-02-05T04:46:10.603Z,101190.42
2023-02-05T04:48:38.018Z,101189.77
2023-02-05T04:51:06.697Z,101194.97
2023-02-05T04:53:33.856Z,101197.42
2023-02-05T04:56:11.778Z,101198.02
2023-02-05T04:58:38.859Z,101201.52
2023-02-05T05:01:15.425Z,101202.77
2023-02-05T05:03:42.349Z,101203.33
2023-02-05T05:06:09.272Z,101208.30
2023-02-05T05:08:36.107Z,101206.80
2023-02-05T05:11:12.657Z,101207.50
2023-02-05T05:13:40.923Z,101210.45
2023-02-05T05:16:08.092Z,101212.02
2023-02-05T05:18:36.658Z,101215.50
2023-02-05T05:21:03.817Z,101208.71
2023-02-05T05:23:31.183Z,101213.29
2023-02-05T05:25:57.986Z,101213.61
2023-02-05T05:28:25.433Z,101222.64
2023-02-05T05:30:52.368Z,101221.60
2023-02-05T05:33:19.616Z,101221.05
2023-02-05T05:35:46.634Z,101223.22
2023-02-05T05:38:14.437Z,101224.58
2023-02-05T05:41:00.524Z,101229.67
2023-02-05T05:43:46.340Z,101229.96
2023-02-05T05:46:21.518Z,101232.19
2023-02-05T05:48:52.337Z,101240.94
2023-02-05T05:51:19.543Z,101245.08
2023-02-05T05:53:46.335Z,101247.34
2023-02-05T05:56:13.397Z,101252.67
2023-02-05T05:58:40.202Z,101252.29
2023-02-05T06:01:07.336Z,101253.60
2023-02-05T06:03:34.994Z,101253.12
2023-02-05T06:06:05.466Z,101257.91
2023-02-05T06:08:32.404Z,101258.77
2023-02-05T06:10:59.386Z,101257.95
2023-02-05T06:13:27.412Z,101262.61
2023-02-05T06:15:54.571Z,101261.61
2023-02-05T06:18:23.692Z,101262.02
2023-02-05T06:20:51.427Z,101262.89
2023-02-05T06:23:18.210Z,101262.89
2023-02-05T06:25:45.302Z,101266.49
2023-02-05T06:28:12.274Z,101270.42
2023-02-05T06:30:39.068Z,101273.70
2023-02-05T06:33:05.911Z,101273.34
2023-02-05T06:35:34.057Z,101274.70
2023-02-05T06:38:01.261Z,101273.86
2023-02-05T06:40:28.587Z,101277.10
2023-02-05T06:42:55.381Z,101281.92
2023-02-05T06:45:23.121Z,101282.81
2023-02-05T06:47:52.213Z,101285.25
2023-02-05T06:50:20.345Z,101288.50
2023-02-05T06:52:47.638Z,101290.45
2023-02-05T06:55:14.485Z,101288.10
2023-02-05T06:57:41.327Z,101292.08
2023-02-05T07:00:09.495Z,101295.17
2023-02-05T07:02:37.098Z,101298.95
2023-02-05T07:05:04.361Z,101300.20
2023-02-05T07:07:32.746Z,101299.66
2023-02-05T07:09:59.681Z,101299.14
2023-02-05T07:12:26.840Z,101299.10
2023-02-05T07:14:53.732Z,101301.16
2023-02-05T07:17:20.814Z,101305.13
2023-02-05T07:19:47.654Z,101306.05
2023-02-05T07:22:14.765Z,101313.15
2023-02-05T07:24:41.589Z,101316.13
2023-02-05T07:27:08.366Z,101316.88
2023-02-05T07:29:35.190Z,101316.95
2023-02-05T07:32:02.067Z,101316.67
2023-02-05T07:34:29.896Z,101320.48
2023-02-05T07:36:56.757Z,101320.39
2023-02-05T07:39:23.639Z,101319.98
2023-02-05T07:41:52.980Z,101319.75
2023-02-05T07:44:25.576Z,101311.34
2023-02-05T07:46:52.465Z,101306.01
2023-02-05T07:49:19.241Z,101302.35
2023-02-05T07:51:47.168Z,101308.60
2023-02-05T07:54:15.043Z,101312.61
2023-02-05T07:56:42.272Z,101315.44
2023-02-05T07:59:09.132Z,101312.41
2023-02-05T08:01:36.140Z,101315.36
2023-02-05T08:04:03.360Z,101316.59
2023-02-05T08:06:31.387Z,101317.31
2023-02-05T08:08:58.191Z,101317.20
2023-02-05T08:11:25.007Z,101317.95
2023-02-05T08:13:56.653Z,101318.88
2023-02-05T08:16:25.014Z,101319.77
2023-02-05T08:18:52.044Z,101323.91
2023-02-05T08:21:21.154Z,101324.56
2023-02-05T08:23:48.612Z,101326.98
2023-02-05T08:26:15.920Z,101331.10
2023-02-05T08:28:43.077Z,101338.09
2023-02-05T08:31:15.426Z,101338.75
2023-02-05T08:33:42.416Z,101345.06
2023-02-05T08:36:09.402Z,101351.09
2023-02-05T08:38:36.540Z,101351.10
2023-02-05T08:41:13.152Z,101350.41
2023-02-05T08:43:45.844Z,101359.29
2023-02-05T08:46:50.266Z,101356.21
2023-02-05T08:55:59.422Z,101361.15
2023-02-05T08:58:26.857Z,101360.20
2023-02-05T09:01:02.716Z,101365.06
2023-02-05T09:03:30.562Z,101364.77
2023-02-05T09:05:58.424Z,101372.33
2023-02-05T09:08:26.080Z,101367.88
2023-02-05T09:10:53.825Z,101370.81
2023-02-05T09:13:21.093Z,101366.71
2023-02-05T09:15:48.774Z,101365.02
2023-02-05T09:18:16.108Z,101366.55
2023-02-05T09:20:44.982Z,101369.48
2023-02-05T09:23:12.843Z,101370.73
2023-02-05T09:25:40.009Z,101373.67
2023-02-05T09:28:08.787Z,101367.02
2023-02-05T09:30:36.892Z,101365.34
2023-02-05T09:33:04.006Z,101362.80
2023-02-05T09:35:34.660Z,101358.69
2023-02-05T09:38:02.792Z,101360.24
2023-02-05T09:40:51.859Z,101360.46
2023-02-05T09:43:37.596Z,101361.02
2023-02-05T09:46:17.113Z,101359.36
2023-02-05T09:48:53.207Z,101359.41
2023-02-05T09:51:22.386Z,101360.68
2023-02-05T09:53:53.511Z,101364.36
2023-02-05T09:56:20.796Z,101359.80
2023-02-05T09:58:49.249Z,101359.02
2023-02-05T10:01:24.347Z,101362.72
2023-02-05T10:03:57.021Z,101364.50
2023-02-05T10:06:29.866Z,101370.21
2023-02-05T10:09:05.659Z,101375.54
2023-02-05T10:12:13.546Z,101375.05
2023-02-05T10:15:09.666Z,101374.35
2023-02-05T10:17:58.783Z,101375.70
2023-02-05T10:20:44.135Z,101378.09
2023-02-05T10:23:49.787Z,101382.50
2023-02-05T10:26:20.086Z,101385.58
2023-02-05T10:29:03.197Z,101390.91
2023-02-05T10:31:54.892Z,101390.23
2023-02-05T10:34:52.373Z,101392.15
2023-02-05T10:37:21.220Z,101400.81
2023-02-05T10:39:49.125Z,101402.58
2023-02-05T10:42:31.298Z,101409.15
2023-02-05T10:45:20.518Z,101403.49
2023-02-05T10:47:52.973Z,101407.92
2023-02-05T10:50:35.377Z,101403.96
2023-02-05T10:53:02.805Z,101404.42
2023-02-05T10:55:29.901Z,101411.95
2023-02-05T10:57:57.020Z,101412.26
2023-02-05T11:00:24.179Z,101411.70
2023-02-05T11:02:54.448Z,101415.98
2023-02-05T11:05:30.129Z,101415.30
2023-02-05T11:07:58.064Z,101421.48
2023-02-05T11:10:26.495Z,101420.97
2023-02-05T11:13:17.137Z,101420.97
2023-02-05T11:15:57.501Z,101421.87
2023-02-05T11:18:55.428Z,101423.71
2023-02-05T11:21:22.464Z,101422.67
2023-02-05T11:23:56.784Z,101423.03
2023-02-05T11:26:25.373Z,101421.50
2023-02-05T11:28:52.436Z,101421.89
2023-02-05T11:31:32.675Z,101422.10
2023-02-05T11:34:09.034Z,101428.45
2023-02-05T11:36:37.616Z,101430.90
2023-02-05T11:39:04.916Z,101426.25
2023-02-05T11:41:47.347Z,101429.02
2023-02-05T11:44:35.176Z,101431.41
2023-02-05T11:47:02.517Z,101433.45
2023-02-05T11:49:34.681Z,101434.64
2023-02-05T11:52:12.128Z,101436.69
2023-02-05T11:54:39.476Z,101441.12
2023-02-05T11:57:21.375Z,101446.96
2023-02-05T11:59:55.194Z,101445.08
2023-02-05T12:02:28.100Z,101446.46
2023-02-05T12:05:00.557Z,101442.84
2023-02-05T12:07:30.504Z,101442.45
2023-02-05T12:09:59.189Z,101449.33
2023-02-05T12:12:31.430Z,101451.70
2023-02-05T12:15:22.558Z,101451.05
2023-02-05T12:18:15.677Z,101450.75
2023-02-05T12:21:09.309Z,101451.14
2023-02-05T12:23:46.325Z,101452.21
2023-02-05T12:26:28.800Z,101451.39
2023-02-05T12:29:07.880Z,101460.66
2023-02-05T12:31:37.216Z,101461.70
2023-02-05T12:34:38.727Z,101461.86
2023-02-05T12:37:40.145Z,101461.64
2023-02-05T12:40:27.349Z,101467.63
2023-02-05T12:42:56.158Z,101461.61
2023-02-05T12:45:35.107Z,101464.55
2023-02-05T12:48:14.636Z,101468.16
2023-02-05T12:51:06.793Z,101468.00
2023-02-05T12:53:59.253Z,101466.96
2023-02-05T12:56:39.911Z,101471.41
2023-02-05T12:59:25.937Z,101465.85
2023-02-05T13:02:16.192Z,101465.13
2023-02-05T13:05:14.462Z,101463.19
2023-02-05T13:07:45.106Z,101465.97
2023-02-05T13:10:20.573Z,101467.35
2023-02-05T13:12:50.223Z,101469.77
2023-02-05T13:15:24.442Z,101473.72
2023-02-05T13:17:59.111Z,101478.54
2023-02-05T13:20:58.651Z,101479.39
2023-02-05T13:23:45.770Z,101480.05
2023-02-05T13:26:23.710Z,101481.42
2023-02-05T13:29:03.323Z,101486.23
2023-02-05T13:31:32.574Z,101486.37
2023-02-05T13:34:04.561Z,101484.31
2023-02-05T13:36:40.515Z,101491.16
2023-02-05T13:39:16.500Z,101491.31
2023-02-05T13:42:13.148Z,101493.52
2023-02-05T13:45:10.658Z,101494.04
2023-02-05T13:47:57.149Z,101495.73
2023-02-05T13:51:13.695Z,101495.55
2023-02-05T13:54:19.556Z,101498.77
2023-02-05T13:56:58.671Z,101506.32
2023-02-05T13:59:50.879Z,101509.56
2023-02-05T14:02:42.851Z,101512.29
2023-02-05T14:05:09.782Z,101510.92
2023-02-05T14:07:49.092Z,101511.05
2023-02-05T14:10:29.580Z,101519.45
2023-02-05T14:13:09.734Z,101516.52
2023-02-05T14:15:41.193Z,101520.63
2023-02-05T14:18:30.228Z,101523.02
2023-02-05T14:20:57.159Z,101524.89
2023-02-05T14:23:46.667Z,101527.27
2023-02-05T14:26:14.439Z,101532.23
2023-02-05T14:28:49.747Z,101534.98
2023-02-05T14:31:46.898Z,101538.89
2023-02-05T14:34:37.969Z,101543.33
2023-02-05T14:37:05.458Z,101543.50
2023-02-05T14:39:33.250Z,101547.25
2023-02-05T14:42:02.256Z,101553.76
2023-02-05T14:44:33.846Z,101556.83
2023-02-05T14:47:21.115Z,101555.77
2023-02-05T14:49:48.977Z,101560.36
2023-02-05T14:52:30.932Z,101566.14
2023-02-05T14:55:06.798Z,101571.91
2023-02-05T14:57:56.838Z,101573.27
2023-02-05T15:00:29.177Z,101574.63
2023-02-05T15:03:08.376Z,101574.64
2023-02-05T15:05:44.145Z,101578.02
2023-02-05T15:08:16.925Z,101581.10
2023-02-05T15:11:25.458Z,101579.73
2023-02-05T15:14:18.079Z,101580.60
2023-02-05T15:16:49.545Z,101588.33
2023-02-05T15:19:16.752Z,101588.31
2023-02-05T15:21:47.585Z,101590.19
2023-02-05T15:24:21.888Z,101592.39
2023-02-05T15:27:01.058Z,101593.23
2023-02-05T15:29:37.457Z,101595.94
2023-02-05T15:32:15.860Z,101601.03
2023-02-05T15:34:52.946Z,101602.20
2023-02-05T15:37:25.375Z,101599.77
2023-02-05T15:40:04.559Z,101605.08
2023-02-05T15:42:34.284Z,101603.48
2023-02-05T15:45:23.903Z,101606.70
2023-02-05T15:48:01.880Z,101611.15
2023-02-05T15:50:29.482Z,101612.70
2023-02-05T15:52:56.800Z,101617.15
2023-02-05T15:55:28.389Z,101618.67
2023-02-05T19:52:03.577Z,101859.86
2023-02-05T19:55:54.691Z,101866.42
2023-02-05T19:59:42.566Z,101869.31
2023-02-05T20:03:33.929Z,101866.71
2023-02-05T20:07:06.868Z,101876.18
2023-02-05T20:10:56.085Z,101875.27
2023-02-05T20:28:26.916Z,101884.98
2023-02-05T21:09:59.596Z,101938.98
2023-02-05T21:12:32.487Z,101938.52
2023-02-05T21:15:00.802Z,101937.18
2023-02-05T21:17:29.523Z,101946.20
2023-02-05T21:19:58.546Z,101950.83
2023-02-05T21:22:27.309Z,101950.30
2023-02-05T21:24:55.596Z,101953.85
2023-02-05T21:27:25.177Z,101954.31
2023-02-05T21:29:53.509Z,101956.48
2023-02-05T21:32:22.392Z,101953.87
2023-02-05T21:34:50.578Z,101953.84
2023-02-05T21:37:19.059Z,101953.77
2023-02-05T21:39:48.313Z,101959.05
2023-02-05T21:42:17.691Z,101960.02
2023-02-05T21:44:49.398Z,101957.20
2023-02-05T21:47:19.247Z,101963.80
2023-02-05T21:49:47.608Z,101967.88
2023-02-05T21:52:15.785Z,101973.67
2023-02-05T21:54:44.033Z,101974.48
2023-02-05T21:57:12.258Z,101973.95
2023-02-05T21:59:40.840Z,101977.75
2023-02-05T22:02:10.972Z,101980.55
2023-02-05T22:04:39.242Z,101981.43
2023-02-05T22:07:07.482Z,101982.30
2023-02-05T22:09:35.668Z,101982.81
2023-02-05T22:12:06.398Z,101984.35
2023-02-05T22:14:35.824Z,101986.73
2023-02-05T22:17:04.052Z,101988.81
2023-02-05T22:19:32.772Z,101989.50
2023-02-05T22:22:00.988Z,101991.03
2023-02-05T22:24:29.858Z,101989.48
2023-02-05T22:26:58.134Z,101989.48
2023-02-05T22:29:26.408Z,101986.77
2023-02-05T22:31:54.759Z,101987.61
2023-02-05T22:34:23.004Z,101989.13
2023-02-05T22:36:51.215Z,101992.72
2023-02-05T22:39:19.383Z,101987.57
2023-02-05T22:41:48.680Z,101991.96
2023-02-05T22:44:17.374Z,101994.52
2023-02-05T22:46:45.657Z,101995.90
2023-02-05T22:49:16.788Z,101999.83
2023-02-05T22:51:45.481Z,102003.78
2023-02-05T22:54:13.950Z,102005.02
2023-02-05T22:56:42.259Z,102006.75
2023-02-05T22:59:10.609Z,102006.21
2023-02-05T23:01:39.291Z,102013.58
2023-02-05T23:04:08.832Z,102012.00
2023-02-05T23:06:40.021Z,102013.67
2023-02-05T23:09:13.959Z,102017.11
2023-02-05T23:11:43.935Z,102015.20
2023-02-05T23:14:13.289Z,102021.36
2023-02-05T23:16:44.170Z,102025.66
2023-02-05T23:19:16.032Z,102023.61
2023-02-05T23:21:44.737Z,102026.36
2023-02-05T23:24:13.059Z,102024.05
2023-02-05T23:26:44.471Z,102025.27
2023-02-05T23:29:14.120Z,102026.80
2023-02-05T23:31:42.502Z,102027.13
2023-02-05T23:34:11.084Z,102035.31
2023-02-05T23:36:39.730Z,102044.70
2023-02-05T23:39:08.276Z,102049.11
2023-02-05T23:41:39.880Z,102050.14
2023-02-05T23:44:13.774Z,102048.75
2023-02-05T23:46:42.900Z,102053.42
2023-02-05T23:49:11.288Z,102050.20
2023-02-05T23:51:40.596Z,102054.98
2023-02-05T23:54:10.103Z,102052.05
2023-02-05T23:56:40.132Z,102055.99
2023-02-05T23:59:09.358Z,102053.08
